Clipper Kamoshio — 3FSK2 — position and weather

sailwx.info

Track history (hours):
 
Tides and Currents Weather Stations Pressure Air Temp Water Temp Dewpoint Dewpoint Depression Visibility Wind Speed Wind Dir Waves Ship Positions

Clipper Kamoshio

Last reported at 2017-Oct-23 08:27 UTC. Time now 2017-Nov-21 23:07 UTC.
Position N 31°05' E 122°27'.
Warning: this ship's position is 29 days out of date.

Length 177 m; draft 10.3 m.

Type: Cargo ship. MMSI: 353262000.

Date/timePositionNaut miles runAvg speedWind from/ knotsBaromVisibWave heightAir tempDewpointWater temp
2017-Oct-23 08:27N 31°05' E 122°27'3 5.7
2017-Oct-23 07:55N 31°05' E 122°24'0 0.2
2017-Oct-23 07:28N 31°05' E 122°24'0 0.1
2017-Oct-23 06:52N 31°05' E 122°24'0 0.0
2017-Oct-23 06:22N 31°05' E 122°24'0 0.0
2017-Oct-23 03:10N 31°05' E 122°23'0 0.2
2017-Oct-23 02:52N 31°05' E 122°23'0 0.0
2017-Oct-23 02:30N 31°05' E 122°23'0 0.1
2017-Oct-23 01:57N 31°05' E 122°23'0 0.1
2017-Oct-23 01:30N 31°05' E 122°23'0 0.0
2017-Oct-23 01:00N 31°05' E 122°23'0 0.0
2017-Oct-23 00:30N 31°05' E 122°23'0 0.4
2017-Oct-23 00:00N 31°05' E 122°23'3 6.6
2017-Oct-22 23:30N 31°06' E 122°20'510.4
2017-Oct-22 23:00N 31°08' E 122°15'611.9
2017-Oct-22 22:30N 31°12' E 122°09'511.0
2017-Oct-22 22:01N 31°14' E 122°03'611.2
2017-Oct-22 21:30N 31°15' E 121°57'5 9.7
2017-Oct-22 21:01N 31°16' E 121°51'5 9.2
2017-Oct-22 20:31N 31°18' E 121°46'5 9.5
2017-Oct-22 20:00N 31°20' E 121°41'611.9
2017-Oct-22 19:30N 31°23' E 121°35'611.4
2017-Oct-22 19:00N 31°26' E 121°29'510.5
2017-Oct-22 18:30N 31°29' E 121°24'2 3.8
2017-Oct-22 18:00N 31°30' E 121°22'0 0.0
2017-Oct-22 17:30N 31°30' E 121°22'0 0.0
2017-Oct-22 17:00N 31°30' E 121°22'0 0.0
2017-Oct-22 16:30N 31°30' E 121°22'0 0.0
2017-Oct-22 16:00N 31°30' E 121°22'0 0.0
2017-Oct-22 15:30N 31°30' E 121°22'0 0.0
2017-Oct-22 15:00N 31°30' E 121°22'0 0.0
2017-Oct-22 14:30N 31°30' E 121°22'0 0.0
2017-Oct-22 14:00N 31°30' E 121°22'0 0.0
2017-Oct-22 13:30N 31°30' E 121°22'0 0.0
2017-Oct-22 13:00N 31°30' E 121°22'0 0.0
2017-Oct-22 12:30N 31°30' E 121°22'0 0.0
2017-Oct-22 12:00N 31°30' E 121°22'0 0.0
2017-Oct-22 11:30N 31°30' E 121°22'0 0.0
2017-Oct-22 10:57N 31°30' E 121°22'0 0.0
2017-Oct-22 10:27N 31°30' E 121°22'0 0.0
2017-Oct-22 10:00N 31°30' E 121°22'0 0.0
2017-Oct-22 09:30N 31°30' E 121°22'0 0.0
2017-Oct-22 09:00N 31°30' E 121°22'0 0.0
2017-Oct-22 08:30N 31°30' E 121°22'0 0.0
2017-Oct-22 08:00N 31°30' E 121°22'0 0.0
2017-Oct-22 07:30N 31°30' E 121°22'0 0.0
2017-Oct-22 07:00N 31°30' E 121°22'0 0.0
2017-Oct-22 06:30N 31°30' E 121°22'0 0.0
2017-Oct-22 06:00N 31°30' E 121°22'0 0.0
2017-Oct-22 05:30N 31°30' E 121°22'0 0.0
2017-Oct-22 05:00N 31°30' E 121°22'0 0.0
2017-Oct-22 04:30N 31°30' E 121°22'0 0.0
2017-Oct-22 04:00N 31°30' E 121°22'0 0.0
2017-Oct-22 03:30N 31°30' E 121°22'0 0.0
2017-Oct-22 03:00N 31°30' E 121°22'0 0.0
2017-Oct-22 02:30N 31°30' E 121°22'0 0.0
2017-Oct-22 02:00N 31°30' E 121°22'0 0.0
2017-Oct-22 01:30N 31°30' E 121°22'0 0.0
2017-Oct-22 01:00N 31°30' E 121°22'0 0.0
2017-Oct-22 00:27N 31°30' E 121°22'0 0.0
2017-Oct-22 00:00N 31°30' E 121°22'0 0.0
2017-Oct-21 23:30N 31°30' E 121°22'0 0.0
2017-Oct-21 22:57N 31°30' E 121°22'0 0.0
2017-Oct-21 22:27N 31°30' E 121°22'0 0.0
2017-Oct-21 22:00N 31°30' E 121°22'0 0.0
2017-Oct-21 21:30N 31°30' E 121°22'0 0.0
2017-Oct-21 20:57N 31°30' E 121°22'0 0.0
2017-Oct-21 20:24N 31°30' E 121°22'0 0.0
2017-Oct-21 20:00N 31°30' E 121°22'0 0.0
2017-Oct-21 19:30N 31°30' E 121°22'0 0.0
2017-Oct-21 19:00N 31°30' E 121°22'0 0.0
2017-Oct-21 18:30N 31°30' E 121°22'0 0.0
2017-Oct-21 18:00N 31°30' E 121°22'0 0.0
2017-Oct-21 17:30N 31°30' E 121°22'0 0.0
2017-Oct-21 17:00N 31°30' E 121°22'0 0.0
2017-Oct-21 16:30N 31°30' E 121°22'0 0.0
2017-Oct-21 15:57N 31°30' E 121°22'0 0.0
2017-Oct-21 15:30N 31°30' E 121°22'0 0.0
2017-Oct-21 14:54N 31°30' E 121°22'0 0.0
2017-Oct-21 14:30N 31°30' E 121°22'0 0.0
2017-Oct-21 13:30N 31°30' E 121°22'0 0.0
2017-Oct-21 13:00N 31°30' E 121°22'0 0.0
2017-Oct-21 12:30N 31°30' E 121°22'0 0.0
2017-Oct-21 11:54N 31°30' E 121°22'0 0.0
2017-Oct-21 11:30N 31°30' E 121°22'0 0.0
2017-Oct-21 11:00N 31°30' E 121°22'0 0.0
2017-Oct-21 10:30N 31°30' E 121°22'0 0.0
2017-Oct-21 09:54N 31°30' E 121°22'0 0.0
2017-Oct-21 09:30N 31°30' E 121°22'0 0.0
2017-Oct-21 09:00N 31°30' E 121°22'0 0.0
2017-Oct-21 08:24N 31°30' E 121°22'0 0.0
2017-Oct-21 07:57N 31°30' E 121°22'0 0.0
2017-Oct-21 07:30N 31°30' E 121°22'0 0.0
2017-Oct-21 07:00N 31°30' E 121°22'0 0.0
2017-Oct-21 06:30N 31°30' E 121°22'0 0.0
2017-Oct-21 06:00N 31°30' E 121°22'0 0.4
2017-Oct-21 05:30N 31°30' E 121°22'2 3.3
2017-Oct-21 05:00N 31°32' E 121°21'4 8.5
2017-Oct-21 04:30N 31°35' E 121°18'5 9.5
2017-Oct-21 04:00N 31°38' E 121°14'510.3
2017-Oct-21 03:30N 31°42' E 121°09'5 9.7
2017-Oct-21 02:57N 31°45' E 121°05'  
2017-Oct-18 00:29N 31°47' E 120°59'10 1.8
2017-Oct-17 18:52N 31°42' E 121°09'510.3
2017-Oct-17 18:20N 31°39' E 121°14'410.8
2017-Oct-17 18:00N 31°36' E 121°17'611.5
2017-Oct-17 17:30N 31°32' E 121°22'611.7
2017-Oct-17 17:00N 31°28' E 121°27'5 9.3
2017-Oct-17 16:30N 31°25' E 121°31'611.9
2017-Oct-17 16:00N 31°22' E 121°37'611.0
2017-Oct-17 15:30N 31°19' E 121°43'713.7
2017-Oct-17 15:00N 31°14' E 121°48'713.8
2017-Oct-17 14:30N 31°09' E 121°54'612.0
2017-Oct-17 14:00N 31°06' E 121°59'4 8.5
2017-Oct-17 13:30N 31°04' E 122°04'4 7.2
2017-Oct-17 13:00N 31°03' E 122°08'4 8.3
2017-Oct-17 12:30N 31°03' E 122°13'4 7.8
2017-Oct-17 12:00N 31°03' E 122°18'4 7.9
2017-Oct-17 11:28N 31°02' E 122°22'4 8.3
2017-Oct-17 10:59N 31°01' E 122°27'3 7.3
2017-Oct-17 10:30N 30°60' E 122°31'  
Track history (hours):
 
Tides and Currents Weather Stations Pressure Air Temp Water Temp Dewpoint Dewpoint Depression Visibility Wind Speed Wind Dir Waves Ship Positions

Clipper Kamoshio

Last reported at 2017-Oct-23 08:27 UTC. Time now 2017-Nov-21 23:07 UTC.
Position N 31°05' E 122°27'.
Warning: this ship's position is 29 days out of date.

Length 177 m; draft 10.3 m.

Type: Cargo ship. MMSI: 353262000.

Date/timePositionNaut miles runAvg speedWind from/ knotsBaromVisibWave heightAir tempDewpointWater temp
2017-Oct-23 08:27N 31°05' E 122°27'3 5.7
2017-Oct-23 07:55N 31°05' E 122°24'0 0.2
2017-Oct-23 07:28N 31°05' E 122°24'0 0.1
2017-Oct-23 06:52N 31°05' E 122°24'0 0.0
2017-Oct-23 06:22N 31°05' E 122°24'0 0.0
2017-Oct-23 03:10N 31°05' E 122°23'0 0.2
2017-Oct-23 02:52N 31°05' E 122°23'0 0.0
2017-Oct-23 02:30N 31°05' E 122°23'0 0.1
2017-Oct-23 01:57N 31°05' E 122°23'0 0.1
2017-Oct-23 01:30N 31°05' E 122°23'0 0.0
2017-Oct-23 01:00N 31°05' E 122°23'0 0.0
2017-Oct-23 00:30N 31°05' E 122°23'0 0.4
2017-Oct-23 00:00N 31°05' E 122°23'3 6.6
2017-Oct-22 23:30N 31°06' E 122°20'510.4
2017-Oct-22 23:00N 31°08' E 122°15'611.9
2017-Oct-22 22:30N 31°12' E 122°09'511.0
2017-Oct-22 22:01N 31°14' E 122°03'611.2
2017-Oct-22 21:30N 31°15' E 121°57'5 9.7
2017-Oct-22 21:01N 31°16' E 121°51'5 9.2
2017-Oct-22 20:31N 31°18' E 121°46'5 9.5
2017-Oct-22 20:00N 31°20' E 121°41'611.9
2017-Oct-22 19:30N 31°23' E 121°35'611.4
2017-Oct-22 19:00N 31°26' E 121°29'510.5
2017-Oct-22 18:30N 31°29' E 121°24'2 3.8
2017-Oct-22 18:00N 31°30' E 121°22'0 0.0
2017-Oct-22 17:30N 31°30' E 121°22'0 0.0
2017-Oct-22 17:00N 31°30' E 121°22'0 0.0
2017-Oct-22 16:30N 31°30' E 121°22'0 0.0
2017-Oct-22 16:00N 31°30' E 121°22'0 0.0
2017-Oct-22 15:30N 31°30' E 121°22'0 0.0
2017-Oct-22 15:00N 31°30' E 121°22'0 0.0
2017-Oct-22 14:30N 31°30' E 121°22'0 0.0
2017-Oct-22 14:00N 31°30' E 121°22'0 0.0
2017-Oct-22 13:30N 31°30' E 121°22'0 0.0
2017-Oct-22 13:00N 31°30' E 121°22'0 0.0
2017-Oct-22 12:30N 31°30' E 121°22'0 0.0
2017-Oct-22 12:00N 31°30' E 121°22'0 0.0
2017-Oct-22 11:30N 31°30' E 121°22'0 0.0
2017-Oct-22 10:57N 31°30' E 121°22'0 0.0
2017-Oct-22 10:27N 31°30' E 121°22'0 0.0
2017-Oct-22 10:00N 31°30' E 121°22'0 0.0
2017-Oct-22 09:30N 31°30' E 121°22'0 0.0
2017-Oct-22 09:00N 31°30' E 121°22'0 0.0
2017-Oct-22 08:30N 31°30' E 121°22'0 0.0
2017-Oct-22 08:00N 31°30' E 121°22'0 0.0
2017-Oct-22 07:30N 31°30' E 121°22'0 0.0
2017-Oct-22 07:00N 31°30' E 121°22'0 0.0
2017-Oct-22 06:30N 31°30' E 121°22'0 0.0
2017-Oct-22 06:00N 31°30' E 121°22'0 0.0
2017-Oct-22 05:30N 31°30' E 121°22'0 0.0
2017-Oct-22 05:00N 31°30' E 121°22'0 0.0
2017-Oct-22 04:30N 31°30' E 121°22'0 0.0
2017-Oct-22 04:00N 31°30' E 121°22'0 0.0
2017-Oct-22 03:30N 31°30' E 121°22'0 0.0
2017-Oct-22 03:00N 31°30' E 121°22'0 0.0
2017-Oct-22 02:30N 31°30' E 121°22'0 0.0
2017-Oct-22 02:00N 31°30' E 121°22'0 0.0
2017-Oct-22 01:30N 31°30' E 121°22'0 0.0
2017-Oct-22 01:00N 31°30' E 121°22'0 0.0
2017-Oct-22 00:27N 31°30' E 121°22'0 0.0
2017-Oct-22 00:00N 31°30' E 121°22'0 0.0
2017-Oct-21 23:30N 31°30' E 121°22'0 0.0
2017-Oct-21 22:57N 31°30' E 121°22'0 0.0
2017-Oct-21 22:27N 31°30' E 121°22'0 0.0
2017-Oct-21 22:00N 31°30' E 121°22'0 0.0
2017-Oct-21 21:30N 31°30' E 121°22'0 0.0
2017-Oct-21 20:57N 31°30' E 121°22'0 0.0
2017-Oct-21 20:24N 31°30' E 121°22'0 0.0
2017-Oct-21 20:00N 31°30' E 121°22'0 0.0
2017-Oct-21 19:30N 31°30' E 121°22'0 0.0
2017-Oct-21 19:00N 31°30' E 121°22'0 0.0
2017-Oct-21 18:30N 31°30' E 121°22'0 0.0
2017-Oct-21 18:00N 31°30' E 121°22'0 0.0
2017-Oct-21 17:30N 31°30' E 121°22'0 0.0
2017-Oct-21 17:00N 31°30' E 121°22'0 0.0
2017-Oct-21 16:30N 31°30' E 121°22'0 0.0
2017-Oct-21 15:57N 31°30' E 121°22'0 0.0
2017-Oct-21 15:30N 31°30' E 121°22'0 0.0
2017-Oct-21 14:54N 31°30' E 121°22'0 0.0
2017-Oct-21 14:30N 31°30' E 121°22'0 0.0
2017-Oct-21 13:30N 31°30' E 121°22'0 0.0
2017-Oct-21 13:00N 31°30' E 121°22'0 0.0
2017-Oct-21 12:30N 31°30' E 121°22'0 0.0
2017-Oct-21 11:54N 31°30' E 121°22'0 0.0
2017-Oct-21 11:30N 31°30' E 121°22'0 0.0
2017-Oct-21 11:00N 31°30' E 121°22'0 0.0
2017-Oct-21 10:30N 31°30' E 121°22'0 0.0
2017-Oct-21 09:54N 31°30' E 121°22'0 0.0
2017-Oct-21 09:30N 31°30' E 121°22'0 0.0
2017-Oct-21 09:00N 31°30' E 121°22'0 0.0
2017-Oct-21 08:24N 31°30' E 121°22'0 0.0
2017-Oct-21 07:57N 31°30' E 121°22'0 0.0
2017-Oct-21 07:30N 31°30' E 121°22'0 0.0
2017-Oct-21 07:00N 31°30' E 121°22'0 0.0
2017-Oct-21 06:30N 31°30' E 121°22'0 0.0
2017-Oct-21 06:00N 31°30' E 121°22'0 0.4
2017-Oct-21 05:30N 31°30' E 121°22'2 3.3
2017-Oct-21 05:00N 31°32' E 121°21'4 8.5
2017-Oct-21 04:30N 31°35' E 121°18'5 9.5
2017-Oct-21 04:00N 31°38' E 121°14'510.3
2017-Oct-21 03:30N 31°42' E 121°09'5 9.7
2017-Oct-21 02:57N 31°45' E 121°05'  
2017-Oct-18 00:29N 31°47' E 120°59'10 1.8
2017-Oct-17 18:52N 31°42' E 121°09'510.3
2017-Oct-17 18:20N 31°39' E 121°14'410.8
2017-Oct-17 18:00N 31°36' E 121°17'611.5
2017-Oct-17 17:30N 31°32' E 121°22'611.7
2017-Oct-17 17:00N 31°28' E 121°27'5 9.3
2017-Oct-17 16:30N 31°25' E 121°31'611.9
2017-Oct-17 16:00N 31°22' E 121°37'611.0
2017-Oct-17 15:30N 31°19' E 121°43'713.7
2017-Oct-17 15:00N 31°14' E 121°48'713.8
2017-Oct-17 14:30N 31°09' E 121°54'612.0
2017-Oct-17 14:00N 31°06' E 121°59'4 8.5
2017-Oct-17 13:30N 31°04' E 122°04'4 7.2
2017-Oct-17 13:00N 31°03' E 122°08'4 8.3
2017-Oct-17 12:30N 31°03' E 122°13'4 7.8
2017-Oct-17 12:00N 31°03' E 122°18'4 7.9
2017-Oct-17 11:28N 31°02' E 122°22'4 8.3
2017-Oct-17 10:59N 31°01' E 122°27'3 7.3
2017-Oct-17 10:30N 30°60' E 122°31'  

Dump ship's entire track history